Time;durP1;ratioP1;P1;durP2;ratioP2;P2;SDS_P1;SDS_P2;PMS_P1;PMS_P2;Temp;Humidity;BMP_temperature;BMP_pressure;BME280_temperature;BME280_humidity;BME280_pressure;Samples;Min_cycle;Max_cycle;Signal;HPM_P1;HPM_P2
2023/12/26 00:03:57;;;;;;;1.87;1.20;;;;;;;;;;2612467;54;20903;-76
2023/12/26 00:09:28;;;;;;;1.80;1.20;;;;;;;;;;2613519;54;20475;-75
2023/12/26 00:14:57;;;;;;;6.03;1.07;;;;;;;;;;2612003;54;20924;-76
2023/12/26 00:20:27;;;;;;;3.03;1.53;;;;;;;;;;2612303;54;20363;-75
2023/12/26 00:23:13;;;;;;;3.40;1.07;;;;;;;;;;2611377;54;20404;-74
2023/12/26 00:25:40;;;;;;;1.30;0.90;;;;;;;;;;2611501;54;20416;-75
2023/12/26 00:31:09;;;;;;;1.50;1.20;;;;;;;;;;2612452;54;20412;-75
2023/12/26 00:40:12;;;;;;;1.40;1.00;;;;;;;;;;2612464;54;20377;-74
2023/12/26 00:45:42;;;;;;;1.60;1.30;;;;;;;;;;2612239;54;20394;-73
2023/12/26 00:51:11;;;;;;;4.20;1.77;;;;;;;;;;2612928;54;20397;-75
2023/12/26 00:56:41;;;;;;;1.50;1.00;;;;;;;;;;2611968;54;20385;-75
2023/12/26 01:02:11;;;;;;;5.80;2.03;;;;;;;;;;2611993;54;20422;-75
2023/12/26 01:07:41;;;;;;;4.50;1.83;;;;;;;;;;2612202;46;20412;-73
2023/12/26 01:13:11;;;;;;;1.03;0.63;;;;;;;;;;2609765;54;20370;-75
2023/12/26 01:18:40;;;;;;;6.50;1.40;;;;;;;;;;2611698;54;20404;-76
2023/12/26 01:24:10;;;;;;;1.43;0.90;;;;;;;;;;2611615;54;20362;-75
2023/12/26 01:29:40;;;;;;;1.20;0.87;;;;;;;;;;2610353;54;20526;-75
2023/12/26 01:35:10;;;;;;;2.43;1.00;;;;;;;;;;2611699;54;20395;-76
2023/12/26 01:40:58;;;;;;;1.37;1.03;;;;;;;;;;2612125;54;20556;-75
2023/12/26 01:46:28;;;;;;;3.17;1.23;;;;;;;;;;2610983;54;20477;-72
2023/12/26 01:51:58;;;;;;;3.00;1.37;;;;;;;;;;2611389;54;20408;-75
2023/12/26 01:57:28;;;;;;;4.60;1.37;;;;;;;;;;2611936;54;20425;-75
2023/12/26 02:02:58;;;;;;;1.40;0.77;;;;;;;;;;2611517;54;20416;-74
2023/12/26 02:08:28;;;;;;;2.40;0.90;;;;;;;;;;2611658;54;20474;-76
2023/12/26 02:13:58;;;;;;;1.60;1.13;;;;;;;;;;2612922;46;20385;-75
2023/12/26 02:19:29;;;;;;;1.40;1.00;;;;;;;;;;2610255;54;20503;-75
2023/12/26 02:24:59;;;;;;;1.97;0.97;;;;;;;;;;2611671;54;20371;-75
2023/12/26 02:30:29;;;;;;;3.07;0.80;;;;;;;;;;2611651;39;20755;-74
2023/12/26 02:35:59;;;;;;;1.77;0.90;;;;;;;;;;2611551;54;20381;-75
2023/12/26 02:50:31;;;;;;;1.47;0.90;;;;;;;;;;2612182;54;20423;-74
2023/12/26 02:56:02;;;;;;;2.20;0.60;;;;;;;;;;2610443;54;20469;-75
2023/12/26 03:01:32;;;;;;;2.93;0.60;;;;;;;;;;2611280;39;20748;-75
2023/12/26 03:07:01;;;;;;;5.37;1.13;;;;;;;;;;2612245;54;20365;-76
2023/12/26 03:12:31;;;;;;;0.93;0.60;;;;;;;;;;2613092;54;20364;-76
2023/12/26 03:18:00;;;;;;;1.40;0.90;;;;;;;;;;2612171;54;20390;-76
2023/12/26 03:23:30;;;;;;;2.40;0.70;;;;;;;;;;2613186;54;20384;-75
2023/12/26 03:29:01;;;;;;;5.10;0.90;;;;;;;;;;2611959;54;20449;-75
2023/12/26 03:34:30;;;;;;;1.13;0.87;;;;;;;;;;2611846;39;20781;-75
2023/12/26 03:40:00;;;;;;;2.00;1.10;;;;;;;;;;2612393;54;20402;-75
2023/12/26 03:45:30;;;;;;;1.70;1.07;;;;;;;;;;2612302;54;21063;-75
2023/12/26 03:51:00;;;;;;;1.37;0.97;;;;;;;;;;2612877;54;20955;-75
2023/12/26 03:56:33;;;;;;;2.30;0.80;;;;;;;;;;2611644;54;20354;-74
2023/12/26 04:02:03;;;;;;;1.10;0.60;;;;;;;;;;2612237;46;20378;-75
2023/12/26 04:07:32;;;;;;;1.60;0.90;;;;;;;;;;2611089;39;20751;-76
2023/12/26 04:13:02;;;;;;;1.30;0.60;;;;;;;;;;2611911;54;20936;-77
2023/12/26 04:18:33;;;;;;;1.30;0.70;;;;;;;;;;2612384;54;20377;-76
2023/12/26 04:24:03;;;;;;;2.00;0.90;;;;;;;;;;2612730;54;20370;-75
2023/12/26 04:29:32;;;;;;;1.40;1.17;;;;;;;;;;2612147;54;20926;-75
2023/12/26 04:35:02;;;;;;;2.50;1.10;;;;;;;;;;2612357;54;21271;-74
2023/12/26 04:40:32;;;;;;;1.57;1.00;;;;;;;;;;2611856;54;20378;-74
2023/12/26 04:46:01;;;;;;;2.33;1.53;;;;;;;;;;2612036;39;20440;-75
2023/12/26 04:51:31;;;;;;;2.13;1.27;;;;;;;;;;2613260;54;20916;-76
2023/12/26 04:57:02;;;;;;;1.87;1.47;;;;;;;;;;2610383;54;20445;-73
2023/12/26 05:02:32;;;;;;;3.17;1.53;;;;;;;;;;2612581;39;20754;-76
2023/12/26 05:08:03;;;;;;;2.87;1.60;;;;;;;;;;2612297;54;20362;-74
2023/12/26 05:10:48;;;;;;;3.47;2.40;;;;;;;;;;2612673;47;20420;-75
2023/12/26 05:13:14;;;;;;;2.07;1.30;;;;;;;;;;2610810;54;20427;-75
2023/12/26 05:18:43;;;;;;;2.87;2.37;;;;;;;;;;2610997;54;20390;-76
2023/12/26 05:24:13;;;;;;;7.60;1.80;;;;;;;;;;2611712;54;20359;-73
2023/12/26 05:29:43;;;;;;;3.30;1.80;;;;;;;;;;2611181;54;20370;-74
2023/12/26 05:35:13;;;;;;;2.03;1.17;;;;;;;;;;2611899;39;20732;-73
2023/12/26 05:46:50;;;;;;;10.70;1.50;;;;;;;;;;2612701;54;20965;-75
2023/12/26 05:52:20;;;;;;;2.47;1.90;;;;;;;;;;2610686;54;20535;-75
2023/12/26 05:57:49;;;;;;;3.57;2.00;;;;;;;;;;2611967;54;20380;-76
2023/12/26 06:03:19;;;;;;;2.20;1.77;;;;;;;;;;2611528;54;20422;-75
2023/12/26 06:08:48;;;;;;;3.17;1.87;;;;;;;;;;2612662;54;20381;-76
2023/12/26 06:14:18;;;;;;;2.33;1.40;;;;;;;;;;2612313;54;20416;-76
2023/12/26 06:19:48;;;;;;;2.53;1.73;;;;;;;;;;2612585;54;20992;-76
2023/12/26 06:25:17;;;;;;;2.60;1.80;;;;;;;;;;2613033;39;20849;-75
2023/12/26 06:30:47;;;;;;;2.10;1.50;;;;;;;;;;2612944;54;20371;-76
2023/12/26 06:36:17;;;;;;;6.33;2.07;;;;;;;;;;2612306;54;20389;-75
2023/12/26 06:45:18;;;;;;;4.57;2.47;;;;;;;;;;2613754;39;20773;-75
2023/12/26 06:50:49;;;;;;;4.10;1.70;;;;;;;;;;2613322;54;20414;-76
2023/12/26 06:56:18;;;;;;;4.53;1.77;;;;;;;;;;2613548;54;20358;-75
2023/12/26 07:01:48;;;;;;;5.40;2.40;;;;;;;;;;2613807;54;20363;-75
2023/12/26 07:07:18;;;;;;;5.43;2.80;;;;;;;;;;2612980;54;20366;-82
2023/12/26 07:12:50;;;;;;;3.27;2.73;;;;;;;;;;2612680;54;20367;-75
2023/12/26 07:18:30;;;;;;;9.17;3.60;;;;;;;;;;2613958;39;20507;-76
2023/12/26 07:24:03;;;;;;;7.50;3.50;;;;;;;;;;2612592;39;20941;-74
2023/12/26 07:29:32;;;;;;;7.63;3.63;;;;;;;;;;2611727;54;20465;-75
2023/12/26 07:35:05;;;;;;;4.30;3.10;;;;;;;;;;2612408;54;20391;-74
2023/12/26 07:40:35;;;;;;;3.13;2.10;;;;;;;;;;2612531;54;20366;-73
2023/12/26 07:46:05;;;;;;;3.53;1.70;;;;;;;;;;2611760;54;20359;-72
2023/12/26 07:51:35;;;;;;;5.57;2.17;;;;;;;;;;2612786;54;20352;-74
2023/12/26 07:57:05;;;;;;;7.43;2.43;;;;;;;;;;2611702;54;20425;-72
2023/12/26 08:02:34;;;;;;;5.57;1.67;;;;;;;;;;2612635;54;20393;-74
2023/12/26 08:08:04;;;;;;;9.03;2.27;;;;;;;;;;2611937;54;20375;-74
2023/12/26 08:13:34;;;;;;;4.63;2.27;;;;;;;;;;2612600;39;20627;-73
2023/12/26 08:19:04;;;;;;;13.47;2.33;;;;;;;;;;2612798;54;20501;-73
2023/12/26 08:24:33;;;;;;;5.80;1.40;;;;;;;;;;2612734;54;20892;-74
2023/12/26 08:30:03;;;;;;;2.80;1.47;;;;;;;;;;2613737;54;20387;-74
2023/12/26 08:35:35;;;;;;;6.00;1.73;;;;;;;;;;2613873;54;20386;-74
2023/12/26 08:47:15;;;;;;;6.77;2.67;;;;;;;;;;2611033;54;21034;-72
2023/12/26 08:52:45;;;;;;;6.10;2.17;;;;;;;;;;2612262;54;20423;-73
2023/12/26 08:58:14;;;;;;;3.97;1.87;;;;;;;;;;2611960;54;20423;-73
2023/12/26 09:03:44;;;;;;;8.57;1.90;;;;;;;;;;2613128;54;20932;-74
2023/12/26 09:09:17;;;;;;;5.10;1.57;;;;;;;;;;2612306;54;20944;-73
2023/12/26 09:14:48;;;;;;;4.80;1.80;;;;;;;;;;2612400;54;21056;-73
2023/12/26 09:20:23;;;;;;;7.30;1.57;;;;;;;;;;2612329;54;20426;-73
2023/12/26 09:25:52;;;;;;;6.13;2.17;;;;;;;;;;2612489;54;20394;-73
2023/12/26 09:31:22;;;;;;;4.23;1.77;;;;;;;;;;2611862;54;20858;-73
2023/12/26 09:36:52;;;;;;;2.77;1.60;;;;;;;;;;2611976;54;20365;-73
2023/12/26 09:46:08;;;;;;;6.23;1.90;;;;;;;;;;2611395;54;20502;-72
2023/12/26 09:51:41;;;;;;;5.20;1.97;;;;;;;;;;2610827;54;20385;-75
2023/12/26 09:57:11;;;;;;;5.10;2.37;;;;;;;;;;2611594;54;20387;-75
2023/12/26 10:02:44;;;;;;;4.60;2.07;;;;;;;;;;2610206;54;20650;-79
2023/12/26 10:08:14;;;;;;;4.13;1.50;;;;;;;;;;2610811;54;20350;-75
2023/12/26 10:13:44;;;;;;;3.57;2.00;;;;;;;;;;2609585;54;20904;-75
2023/12/26 10:19:14;;;;;;;5.40;2.40;;;;;;;;;;2612188;54;20384;-75
2023/12/26 10:24:44;;;;;;;5.63;2.00;;;;;;;;;;2613064;54;20390;-75
2023/12/26 10:30:17;;;;;;;5.63;2.17;;;;;;;;;;2609575;54;20376;-75
2023/12/26 10:47:58;;;;;;;4.83;2.03;;;;;;;;;;2612829;31;20890;-76
2023/12/26 10:53:44;;;;;;;8.80;2.50;;;;;;;;;;2611329;54;20826;-74
2023/12/26 13:54:21;;;;;;;9.40;3.03;;;;;;;;;;2611384;54;20350;-75
2023/12/26 14:00:10;;;;;;;10.43;2.47;;;;;;;;;;2612234;39;20750;-77
2023/12/26 14:05:58;;;;;;;2.63;2.13;;;;;;;;;;2611377;54;20383;-77
2023/12/26 14:11:47;;;;;;;7.33;3.30;;;;;;;;;;2612574;54;20932;-76
2023/12/26 14:17:35;;;;;;;5.57;3.00;;;;;;;;;;2611413;54;20435;-75
2023/12/26 14:23:24;;;;;;;10.17;3.77;;;;;;;;;;2610873;39;20874;-76
2023/12/26 14:29:12;;;;;;;5.50;2.47;;;;;;;;;;2611687;54;20407;-75
2023/12/26 14:35:01;;;;;;;9.23;2.80;;;;;;;;;;2611497;54;20524;-78
2023/12/26 14:40:49;;;;;;;17.40;2.93;;;;;;;;;;2612444;54;20465;-73
2023/12/26 14:46:38;;;;;;;7.60;2.73;;;;;;;;;;2611381;54;20427;-72
2023/12/26 14:52:26;;;;;;;19.03;9.57;;;;;;;;;;2610300;54;20398;-73
2023/12/26 14:58:15;;;;;;;6.53;2.60;;;;;;;;;;2610370;54;20900;-73
2023/12/26 15:03:51;;;;;;;15.47;2.87;;;;;;;;;;2612005;54;20369;-73
2023/12/26 15:09:20;;;;;;;6.03;2.53;;;;;;;;;;2609811;54;20541;-73
2023/12/26 15:14:49;;;;;;;20.33;12.20;;;;;;;;;;2610903;54;20904;-73
2023/12/26 15:20:18;;;;;;;7.30;4.83;;;;;;;;;;2610991;54;20405;-72
2023/12/26 15:25:48;;;;;;;11.33;3.60;;;;;;;;;;2610206;54;20375;-72
2023/12/26 15:31:19;;;;;;;5.10;2.20;;;;;;;;;;2609160;54;20364;-73
2023/12/26 15:36:49;;;;;;;6.53;3.00;;;;;;;;;;2610497;54;20426;-74
2023/12/26 15:42:18;;;;;;;5.80;2.80;;;;;;;;;;2611154;39;20852;-74
2023/12/26 15:47:48;;;;;;;7.37;3.47;;;;;;;;;;2612586;39;20815;-74
2023/12/26 15:53:18;;;;;;;7.30;3.20;;;;;;;;;;2612408;54;20361;-74
2023/12/26 15:58:48;;;;;;;8.40;3.37;;;;;;;;;;2611696;54;20421;-75
2023/12/26 16:04:19;;;;;;;6.60;3.47;;;;;;;;;;2610331;54;20361;-79
2023/12/26 16:09:49;;;;;;;13.50;4.13;;;;;;;;;;2612107;54;20389;-79
2023/12/26 16:15:20;;;;;;;7.47;4.40;;;;;;;;;;2611536;54;20383;-80
2023/12/26 16:20:50;;;;;;;5.97;3.70;;;;;;;;;;2611239;54;20374;-76
2023/12/26 16:26:21;;;;;;;7.23;3.93;;;;;;;;;;2611843;54;20566;-78
2023/12/26 16:31:50;;;;;;;20.43;9.07;;;;;;;;;;2611775;39;21009;-79
2023/12/26 16:37:20;;;;;;;10.13;3.83;;;;;;;;;;2611618;54;20428;-79
2023/12/26 16:48:57;;;;;;;7.13;4.20;;;;;;;;;;2612373;54;20490;-74
2023/12/26 16:54:27;;;;;;;16.83;3.20;;;;;;;;;;2611931;54;20386;-76
2023/12/26 16:59:57;;;;;;;16.03;3.93;;;;;;;;;;2611665;54;20386;-75
2023/12/26 17:05:27;;;;;;;10.90;3.77;;;;;;;;;;2610971;54;20403;-78
2023/12/26 17:10:56;;;;;;;9.20;3.13;;;;;;;;;;2612414;54;20390;-78
2023/12/26 17:16:26;;;;;;;9.93;3.50;;;;;;;;;;2611654;54;20410;-80
2023/12/26 17:21:56;;;;;;;10.50;3.63;;;;;;;;;;2612549;54;20382;-80
2023/12/26 17:33:14;;;;;;;9.20;3.80;;;;;;;;;;2611554;54;20428;-81
2023/12/26 17:38:45;;;;;;;13.07;3.50;;;;;;;;;;2611860;54;20394;-81
2023/12/26 17:50:22;;;;;;;8.23;3.57;;;;;;;;;;2610799;39;20693;-74
2023/12/26 17:55:52;;;;;;;8.33;4.93;;;;;;;;;;2611175;54;20825;-73
2023/12/26 18:01:23;;;;;;;7.23;4.40;;;;;;;;;;2610668;54;20933;-74
2023/12/26 18:06:53;;;;;;;13.30;5.60;;;;;;;;;;2611119;54;21149;-74
2023/12/26 18:12:22;;;;;;;15.63;5.53;;;;;;;;;;2612060;54;20453;-74
2023/12/26 18:17:53;;;;;;;11.50;4.10;;;;;;;;;;2610469;54;20748;-73
2023/12/26 18:23:22;;;;;;;9.23;4.20;;;;;;;;;;2611772;54;20410;-74
2023/12/26 18:28:52;;;;;;;6.83;3.87;;;;;;;;;;2612896;54;20627;-75
2023/12/26 18:34:22;;;;;;;6.60;3.90;;;;;;;;;;2612628;54;20398;-74
2023/12/26 18:39:51;;;;;;;14.13;6.03;;;;;;;;;;2613713;46;20406;-74
2023/12/26 18:49:02;;;;;;;9.17;3.33;;;;;;;;;;2612731;54;20416;-78
2023/12/26 18:54:33;;;;;;;9.80;4.87;;;;;;;;;;2612743;54;20355;-77
2023/12/26 19:00:03;;;;;;;9.60;4.00;;;;;;;;;;2612055;54;20382;-76
2023/12/26 19:05:33;;;;;;;11.63;3.73;;;;;;;;;;2612697;54;20521;-78
2023/12/26 19:11:02;;;;;;;6.97;3.90;;;;;;;;;;2613583;54;20412;-78
2023/12/26 19:16:32;;;;;;;7.30;3.60;;;;;;;;;;2611994;54;20366;-78
2023/12/26 19:22:02;;;;;;;5.90;3.70;;;;;;;;;;2613847;39;21196;-78
2023/12/26 19:27:32;;;;;;;4.23;3.47;;;;;;;;;;2614431;54;20904;-77
2023/12/26 19:33:03;;;;;;;9.60;4.30;;;;;;;;;;2614208;54;20374;-77
2023/12/26 19:38:32;;;;;;;6.37;3.43;;;;;;;;;;2614021;54;20358;-80
2023/12/26 19:44:01;;;;;;;8.70;3.60;;;;;;;;;;2613193;54;20391;-76
2023/12/26 19:49:31;;;;;;;10.70;4.80;;;;;;;;;;2614255;39;20795;-78
2023/12/26 19:55:01;;;;;;;7.90;4.50;;;;;;;;;;2613304;54;21252;-79
2023/12/26 20:00:31;;;;;;;9.03;3.90;;;;;;;;;;2612681;54;20387;-79
2023/12/26 20:06:01;;;;;;;10.10;3.57;;;;;;;;;;2613893;46;20401;-82
2023/12/26 20:11:31;;;;;;;9.33;4.00;;;;;;;;;;2614173;46;20422;-78
2023/12/26 20:17:00;;;;;;;5.90;4.17;;;;;;;;;;2611899;54;20350;-78
2023/12/26 20:22:30;;;;;;;6.70;4.57;;;;;;;;;;2613349;39;20792;-78
2023/12/26 20:28:06;;;;;;;13.17;5.93;;;;;;;;;;2613161;54;20388;-79
2023/12/26 20:33:35;;;;;;;20.50;7.90;;;;;;;;;;2612867;54;20389;-81
2023/12/26 20:39:05;;;;;;;9.17;5.30;;;;;;;;;;2611081;54;20390;-77
2023/12/26 20:44:35;;;;;;;19.60;7.90;;;;;;;;;;2612387;54;20538;-79
2023/12/26 20:50:07;;;;;;;17.73;7.47;;;;;;;;;;2613801;54;20358;-78
2023/12/26 20:55:36;;;;;;;13.00;7.50;;;;;;;;;;2612793;54;20440;-79
2023/12/26 21:01:06;;;;;;;12.87;7.80;;;;;;;;;;2613902;54;20868;-81
2023/12/26 21:06:36;;;;;;;28.67;10.50;;;;;;;;;;2613550;54;20916;-80
2023/12/26 21:12:06;;;;;;;16.30;7.37;;;;;;;;;;2613697;54;20428;-79
2023/12/26 21:17:35;;;;;;;12.03;7.23;;;;;;;;;;2612731;54;20929;-81
2023/12/26 21:23:08;;;;;;;16.57;6.23;;;;;;;;;;2612309;39;20748;-78
2023/12/26 21:28:38;;;;;;;15.10;6.70;;;;;;;;;;2613247;54;20395;-75
2023/12/26 21:34:08;;;;;;;10.03;5.90;;;;;;;;;;2612199;39;20721;-74
2023/12/26 21:39:38;;;;;;;12.30;5.63;;;;;;;;;;2612134;54;20394;-77
2023/12/26 21:51:15;;;;;;;8.60;4.83;;;;;;;;;;2613310;54;20407;-74
2023/12/26 21:56:47;;;;;;;17.57;5.87;;;;;;;;;;2613141;54;20382;-76
2023/12/26 22:02:17;;;;;;;11.47;5.00;;;;;;;;;;2612411;46;20367;-75
2023/12/26 22:07:46;;;;;;;15.23;5.80;;;;;;;;;;2613176;54;20431;-75
2023/12/26 22:13:18;;;;;;;11.80;5.47;;;;;;;;;;2611119;54;21024;-75
2023/12/26 22:18:52;;;;;;;12.70;5.83;;;;;;;;;;2613172;54;20410;-77
2023/12/26 22:24:22;;;;;;;15.13;5.77;;;;;;;;;;2612873;54;21419;-75
2023/12/26 22:29:52;;;;;;;12.43;4.67;;;;;;;;;;2611911;54;20378;-75
2023/12/26 22:35:25;;;;;;;21.40;5.83;;;;;;;;;;2612820;54;20406;-76
2023/12/26 22:40:54;;;;;;;5.87;4.43;;;;;;;;;;2613386;39;20457;-75
2023/12/26 22:50:05;;;;;;;9.50;4.70;;;;;;;;;;2612537;54;20370;-74
2023/12/26 22:55:36;;;;;;;15.27;6.30;;;;;;;;;;2613038;54;21108;-75
2023/12/26 23:01:07;;;;;;;12.83;5.13;;;;;;;;;;2611165;54;20397;-76
2023/12/26 23:06:40;;;;;;;7.60;4.47;;;;;;;;;;2611277;54;20405;-74
2023/12/26 23:12:10;;;;;;;11.97;5.03;;;;;;;;;;2611969;54;20385;-75
2023/12/26 23:17:39;;;;;;;8.33;5.40;;;;;;;;;;2611685;54;20387;-74
2023/12/26 23:23:10;;;;;;;7.87;4.60;;;;;;;;;;2613118;54;20429;-76
2023/12/26 23:28:39;;;;;;;11.80;5.37;;;;;;;;;;2614101;54;21040;-76
2023/12/26 23:34:09;;;;;;;14.00;5.53;;;;;;;;;;2612372;54;20401;-76
2023/12/26 23:39:41;;;;;;;7.70;5.50;;;;;;;;;;2613681;54;20887;-75
2023/12/26 23:45:11;;;;;;;11.50;6.00;;;;;;;;;;2613110;54;20414;-74
2023/12/26 23:50:42;;;;;;;13.27;5.00;;;;;;;;;;2613306;54;20533;-75
2023/12/26 23:56:12;;;;;;;16.70;5.30;;;;;;;;;;2612749;54;20406;-74
